Time;durP1;ratioP1;P1;durP2;ratioP2;P2;SDS_P1;SDS_P2;PMS_P1;PMS_P2;Temp;Humidity;BMP_temperature;BMP_pressure;BME280_temperature;BME280_humidity;BME280_pressure;Samples;Min_cycle;Max_cycle;Signal;HPM_P1;HPM_P2
2021/12/23 00:01:43;;;;;;;10.17;3.80;;;11.00;99.90;;;;;;5032939;28;20419;-82
2021/12/23 00:04:13;;;;;;;7.43;3.50;;;11.00;99.90;;;;;;5033072;28;20370;-82
2021/12/23 00:06:44;;;;;;;9.10;4.57;;;10.90;99.90;;;;;;5032774;28;20477;-82
2021/12/23 00:09:11;;;;;;;9.85;4.90;;;10.90;99.90;;;;;;5032822;28;20023;-82
2021/12/23 00:11:38;;;;;;;7.47;4.13;;;10.80;99.90;;;;;;5032391;28;20505;-82
2021/12/23 00:14:08;;;;;;;8.57;4.18;;;10.80;99.90;;;;;;5032804;28;20029;-82
2021/12/23 00:16:43;;;;;;;7.40;3.97;;;10.70;99.90;;;;;;5033083;28;20030;-82
2021/12/23 00:19:23;;;;;;;10.23;4.25;;;10.70;99.90;;;;;;5040429;22;20141;-82
2021/12/23 00:24:39;;;;;;;6.75;5.03;;;10.60;99.90;;;;;;4978646;28;20069;-82
2021/12/23 00:27:06;;;;;;;6.53;4.32;;;10.60;99.90;;;;;;4992249;28;20030;-82
2021/12/23 00:29:32;;;;;;;;;;;10.60;99.90;;;;;;4994206;28;20026;-82
2021/12/23 00:31:59;;;;;;;6.55;4.35;;;10.50;99.90;;;;;;4993260;28;19941;-80
2021/12/23 00:34:26;;;;;;;7.32;4.40;;;10.50;99.90;;;;;;4992825;28;20029;-82
2021/12/23 00:36:54;;;;;;;6.93;4.40;;;10.60;99.90;;;;;;4993175;28;20048;-82
2021/12/23 00:39:20;;;;;;;6.68;4.45;;;10.50;99.90;;;;;;4993012;28;20033;-83
2021/12/23 00:41:47;;;;;;;8.50;4.00;;;10.50;99.90;;;;;;4993475;28;20018;-83
2021/12/23 00:44:13;;;;;;;7.63;3.95;;;10.60;99.90;;;;;;4975534;28;20022;-82
2021/12/23 00:46:40;;;;;;;7.63;3.55;;;10.60;99.90;;;;;;4993501;28;20026;-82
2021/12/23 00:49:08;;;;;;;8.50;4.40;;;10.60;99.90;;;;;;4992886;28;20027;-83
2021/12/23 00:51:45;;;;;;;6.68;4.22;;;10.60;99.90;;;;;;4991333;28;20546;-82
2021/12/23 00:54:11;;;;;;;6.20;4.22;;;10.50;99.90;;;;;;4999044;28;20027;-83
2021/12/23 00:56:39;;;;;;;8.18;4.55;;;10.50;99.90;;;;;;4975412;28;20045;-83
2021/12/23 00:59:08;;;;;;;6.40;4.07;;;10.50;99.90;;;;;;4992844;28;20030;-82
2021/12/23 01:01:37;;;;;;;5.85;3.53;;;10.50;99.90;;;;;;4992910;28;20031;-83
2021/12/23 01:04:04;;;;;;;4.82;2.85;;;10.40;99.90;;;;;;4993044;28;20045;-82
2021/12/23 01:06:30;;;;;;;7.07;3.47;;;10.50;99.90;;;;;;4993257;28;20045;-82
2021/12/23 01:08:56;;;;;;;7.97;3.53;;;10.40;99.90;;;;;;4993302;28;20019;-83
2021/12/23 01:11:24;;;;;;;8.10;4.20;;;10.40;99.90;;;;;;4992946;28;20343;-83
2021/12/23 01:14:24;;;;;;;7.15;3.38;;;10.40;99.90;;;;;;4972911;28;20038;-82
2021/12/23 01:19:25;;;;;;;7.75;3.63;;;10.40;99.90;;;;;;4992903;28;20050;-82
2021/12/23 01:22:03;;;;;;;6.95;3.92;;;10.40;99.90;;;;;;4975049;28;20022;-83
2021/12/23 01:24:33;;;;;;;5.30;3.40;;;10.40;99.90;;;;;;4992619;28;20097;-81
2021/12/23 01:27:03;;;;;;;6.03;4.18;;;10.50;99.90;;;;;;4993024;28;20075;-82
2021/12/23 01:29:29;;;;;;;6.10;3.42;;;10.50;99.90;;;;;;4991133;28;20030;-83
2021/12/23 01:31:55;;;;;;;6.03;3.28;;;10.40;99.90;;;;;;4992456;28;20046;-82
2021/12/23 01:34:25;;;;;;;5.13;3.37;;;10.40;99.90;;;;;;4992915;28;20130;-82
2021/12/23 01:36:51;;;;;;;5.90;3.30;;;10.40;99.90;;;;;;4992940;28;20023;-82
2021/12/23 01:39:19;;;;;;;6.20;3.00;;;10.40;99.90;;;;;;4992485;28;20037;-81
2021/12/23 01:41:46;;;;;;;4.80;2.92;;;10.40;99.90;;;;;;4992369;28;20059;-83
2021/12/23 01:44:14;;;;;;;6.93;3.55;;;10.40;99.90;;;;;;4975260;28;20041;-82
2021/12/23 01:46:40;;;;;;;5.78;3.53;;;10.40;99.90;;;;;;4995757;28;20048;-83
2021/12/23 01:49:07;;;;;;;7.20;3.70;;;10.40;99.90;;;;;;4994559;28;20058;-83
2021/12/23 01:54:09;;;;;;;5.28;2.53;;;10.40;99.90;;;;;;5014576;28;19932;-82
2021/12/23 01:57:01;;;;;;;5.10;2.67;;;10.50;99.90;;;;;;5014039;28;20034;-83
2021/12/23 01:59:34;;;;;;;6.20;3.60;;;10.40;99.90;;;;;;5015452;28;20120;-83
2021/12/23 02:02:03;;;;;;;7.50;3.83;;;10.50;99.90;;;;;;5015467;28;20034;-83
2021/12/23 02:04:29;;;;;;;5.80;3.22;;;10.40;99.90;;;;;;5013403;28;20060;-82
2021/12/23 02:06:56;;;;;;;6.97;3.90;;;10.50;99.90;;;;;;5015713;28;20435;-83
2021/12/23 02:09:23;;;;;;;7.70;3.70;;;10.40;99.90;;;;;;5014777;28;20123;-83
2021/12/23 02:11:49;;;;;;;5.40;3.28;;;10.40;99.90;;;;;;4997681;28;20057;-83
2021/12/23 02:14:32;;;;;;;7.13;3.60;;;10.40;99.90;;;;;;4998365;28;20117;-83
2021/12/23 02:16:59;;;;;;;5.03;3.03;;;10.40;99.90;;;;;;5015114;28;20026;-82
2021/12/23 02:19:27;;;;;;;5.82;3.28;;;10.40;99.90;;;;;;5015652;28;20169;-82
2021/12/23 02:21:55;;;;;;;5.90;3.83;;;10.40;99.90;;;;;;4998165;28;20068;-82
2021/12/23 02:24:21;;;;;;;5.32;3.17;;;10.40;99.90;;;;;;4997330;28;20125;-83
2021/12/23 02:26:48;;;;;;;7.65;3.90;;;10.30;99.90;;;;;;5015304;28;20080;-83
2021/12/23 02:29:17;;;;;;;6.43;3.53;;;10.30;99.90;;;;;;5015486;28;20026;-83
2021/12/23 02:31:48;;;;;;;7.68;3.55;;;10.30;99.90;;;;;;5014825;28;20036;-82
2021/12/23 02:34:18;;;;;;;6.55;3.25;;;10.30;99.90;;;;;;4997812;28;20390;-82
2021/12/23 02:36:56;;;;;;;6.90;4.10;;;10.20;99.90;;;;;;4997372;28;20022;-82
2021/12/23 02:39:24;;;;;;;9.05;4.20;;;10.20;99.90;;;;;;5014519;28;20034;-82
2021/12/23 02:41:50;;;;;;;6.28;4.00;;;10.10;99.90;;;;;;5015041;28;20062;-82
2021/12/23 02:44:17;;;;;;;7.50;3.70;;;10.20;99.90;;;;;;5014964;28;20030;-83
2021/12/23 02:46:45;;;;;;;7.65;4.13;;;10.20;99.90;;;;;;5014926;28;20379;-83
2021/12/23 02:49:11;;;;;;;7.20;4.25;;;10.10;99.90;;;;;;5014387;28;20026;-83
2021/12/23 02:51:41;;;;;;;6.47;3.60;;;10.20;99.90;;;;;;5014200;28;20048;-82
2021/12/23 02:54:09;;;;;;;5.07;3.33;;;10.10;99.90;;;;;;4996913;28;20045;-82
2021/12/23 02:56:56;;;;;;;6.13;3.53;;;10.10;99.90;;;;;;5013653;28;20038;-83
2021/12/23 02:59:22;;;;;;;7.25;4.00;;;10.00;99.90;;;;;;5014561;28;20036;-82
2021/12/23 03:01:50;;;;;;;6.63;4.13;;;10.00;99.90;;;;;;5014130;28;20030;-82
2021/12/23 03:04:16;;;;;;;6.95;4.25;;;10.00;99.90;;;;;;5014262;28;20026;-82
2021/12/23 03:06:43;;;;;;;8.63;4.85;;;10.00;99.90;;;;;;5014061;28;20033;-82
2021/12/23 03:09:11;;;;;;;4.68;3.08;;;9.90;99.90;;;;;;4996980;28;20034;-82
2021/12/23 03:11:40;;;;;;;6.90;4.40;;;9.90;99.90;;;;;;4996848;28;20409;-82
2021/12/23 03:14:10;;;;;;;9.93;4.57;;;9.90;99.90;;;;;;5013769;28;20061;-82
2021/12/23 03:16:38;;;;;;;6.35;3.65;;;9.90;99.90;;;;;;5013876;28;20284;-82
2021/12/23 03:19:06;;;;;;;7.22;4.40;;;10.00;99.90;;;;;;5013934;28;20121;-82
2021/12/23 03:21:34;;;;;;;7.57;4.20;;;9.90;99.90;;;;;;4995883;28;20052;-82
2021/12/23 03:24:01;;;;;;;7.82;4.20;;;9.90;99.90;;;;;;4996141;28;20061;-83
2021/12/23 03:26:28;;;;;;;5.65;4.20;;;9.90;99.90;;;;;;4995962;28;20521;-82
2021/12/23 03:28:56;;;;;;;7.38;4.30;;;9.90;99.90;;;;;;5013474;28;20065;-82
2021/12/23 03:31:22;;;;;;;6.53;4.50;;;9.90;99.90;;;;;;5013589;28;20382;-82
2021/12/23 03:33:49;;;;;;;5.88;4.10;;;9.90;99.90;;;;;;4996132;28;20124;-81
2021/12/23 03:36:18;;;;;;;6.32;4.63;;;9.90;99.90;;;;;;5013424;28;20030;-82
2021/12/23 03:38:44;;;;;;;7.57;4.13;;;9.90;99.90;;;;;;5013915;28;20030;-82
2021/12/23 03:41:10;;;;;;;9.70;4.22;;;9.90;99.90;;;;;;5015771;28;20030;-83
2021/12/23 03:43:36;;;;;;;7.30;3.90;;;9.90;99.90;;;;;;5013452;28;20044;-82
2021/12/23 03:46:07;;;;;;;8.50;4.40;;;9.90;99.90;;;;;;5013612;28;20114;-82
2021/12/23 03:48:33;;;;;;;8.82;4.00;;;9.80;99.90;;;;;;5012278;28;20046;-82
2021/12/23 03:51:05;;;;;;;6.47;3.50;;;9.90;99.90;;;;;;5013521;28;20037;-82
2021/12/23 03:53:31;;;;;;;8.32;4.30;;;9.90;99.90;;;;;;5013144;28;20406;-82
2021/12/23 03:55:58;;;;;;;5.43;3.00;;;9.90;99.90;;;;;;5013771;28;20319;-81
2021/12/23 03:58:25;;;;;;;6.53;4.05;;;9.90;99.90;;;;;;4996214;28;20034;-82
2021/12/23 04:00:52;;;;;;;8.48;3.88;;;9.90;99.90;;;;;;5013567;28;20075;-82
2021/12/23 04:03:17;;;;;;;;;;;9.90;99.90;;;;;;5013897;28;20475;-82
2021/12/23 04:05:44;;;;;;;6.33;3.50;;;9.90;99.90;;;;;;5013622;28;19912;-82
2021/12/23 04:08:10;;;;;;;7.47;3.88;;;9.90;99.90;;;;;;5012349;28;20044;-81
2021/12/23 04:10:37;;;;;;;6.00;2.90;;;9.90;99.90;;;;;;4995084;28;20364;-82
2021/12/23 04:13:05;;;;;;;4.70;3.45;;;9.90;99.90;;;;;;4995373;28;20161;-82
2021/12/23 04:15:31;;;;;;;8.30;3.78;;;9.90;99.90;;;;;;5012802;28;20056;-83
2021/12/23 04:17:58;;;;;;;9.15;4.07;;;9.90;99.90;;;;;;5011536;28;20128;-82
2021/12/23 04:20:31;;;;;;;6.22;3.60;;;9.90;99.90;;;;;;4995699;28;20034;-82
2021/12/23 04:23:03;;;;;;;7.47;4.00;;;9.90;99.90;;;;;;5013343;28;20049;-82
2021/12/23 04:25:31;;;;;;;7.57;4.65;;;9.80;99.90;;;;;;4994644;28;20034;-83
2021/12/23 04:28:01;;;;;;;6.18;4.13;;;9.80;99.90;;;;;;5012962;28;20014;-82
2021/12/23 04:30:30;;;;;;;7.35;4.13;;;9.70;99.90;;;;;;5012607;28;20056;-81
2021/12/23 04:33:01;;;;;;;6.93;4.30;;;9.70;99.90;;;;;;5003139;28;20486;-82
2021/12/23 04:35:27;;;;;;;6.72;4.00;;;9.70;99.90;;;;;;5012165;28;20033;-82
2021/12/23 04:37:53;;;;;;;6.38;3.97;;;9.80;99.90;;;;;;5012941;28;20049;-83
2021/12/23 04:40:20;;;;;;;6.45;3.42;;;9.80;99.90;;;;;;5011425;28;20165;-82
2021/12/23 04:42:47;;;;;;;7.72;3.90;;;9.70;99.90;;;;;;5005410;28;20030;-80
2021/12/23 04:45:13;;;;;;;6.32;3.58;;;9.80;99.90;;;;;;4993245;28;20453;-83
2021/12/23 04:47:39;;;;;;;6.05;3.55;;;9.70;99.90;;;;;;4964404;28;20042;-80
2021/12/23 04:50:11;;;;;;;7.07;3.77;;;9.70;99.90;;;;;;5009678;28;20037;-82
2021/12/23 04:52:38;;;;;;;8.23;3.33;;;9.70;99.90;;;;;;5005721;28;20299;-82
2021/12/23 04:55:06;;;;;;;6.53;3.40;;;9.70;99.90;;;;;;5004931;28;20026;-83
2021/12/23 04:57:32;;;;;;;7.18;3.58;;;9.70;99.90;;;;;;5012956;28;20030;-80
2021/12/23 05:00:06;;;;;;;4.30;2.63;;;9.70;99.90;;;;;;5012330;28;20026;-83
2021/12/23 05:02:33;;;;;;;7.00;4.10;;;9.70;99.90;;;;;;5012925;28;20387;-80
2021/12/23 05:05:01;;;;;;;5.55;3.80;;;9.70;99.90;;;;;;5009675;28;20030;-83
2021/12/23 05:07:27;;;;;;;5.00;3.20;;;9.70;99.90;;;;;;5011810;28;20033;-83
2021/12/23 05:09:53;;;;;;;5.65;4.00;;;9.70;99.90;;;;;;5010926;28;20026;-83
2021/12/23 05:12:28;;;;;;;6.10;4.57;;;9.60;99.90;;;;;;5010670;28;20561;-83
2021/12/23 05:14:55;;;;;;;6.50;3.88;;;9.50;99.90;;;;;;5012209;28;20498;-82
2021/12/23 05:17:21;;;;;;;;;;;9.50;99.90;;;;;;4995726;28;20037;-83
2021/12/23 05:19:47;;;;;;;7.10;4.27;;;9.60;99.90;;;;;;5013313;28;19906;-83
2021/12/23 05:22:15;;;;;;;5.55;4.03;;;9.60;99.90;;;;;;5016574;28;20026;-83
2021/12/23 05:24:45;;;;;;;6.40;4.57;;;9.60;99.90;;;;;;5016979;28;20034;-83
2021/12/23 05:27:12;;;;;;;6.40;4.10;;;9.60;99.90;;;;;;5016060;28;20249;-78
2021/12/23 05:29:38;;;;;;;6.27;3.90;;;9.60;99.90;;;;;;5016393;28;20069;-78
2021/12/23 05:32:04;;;;;;;6.82;4.35;;;9.70;99.90;;;;;;5015985;28;20022;-78
2021/12/23 05:34:30;;;;;;;5.25;3.75;;;9.60;99.90;;;;;;5015976;28;20129;-78
2021/12/23 05:36:56;;;;;;;4.83;3.57;;;9.70;99.90;;;;;;5015005;28;20060;-78
2021/12/23 05:39:22;;;;;;;5.70;2.72;;;9.80;99.90;;;;;;5014430;28;20386;-79
2021/12/23 05:41:48;;;;;;;6.75;3.83;;;9.80;99.90;;;;;;5015775;28;20026;-78
2021/12/23 05:44:22;;;;;;;5.82;3.78;;;9.90;99.90;;;;;;5016111;28;20084;-79
2021/12/23 05:46:48;;;;;;;7.53;4.18;;;9.90;99.90;;;;;;5014089;28;20022;-77
2021/12/23 05:49:28;;;;;;;6.05;3.45;;;9.90;99.90;;;;;;5016021;28;20117;-77
2021/12/23 05:51:54;;;;;;;3.95;2.90;;;9.90;99.90;;;;;;5013772;28;20386;-77
2021/12/23 05:54:20;;;;;;;6.43;2.80;;;9.90;99.90;;;;;;5015836;28;20148;-77
2021/12/23 05:56:46;;;;;;;4.85;3.25;;;10.00;99.90;;;;;;5014824;28;20034;-76
2021/12/23 05:59:12;;;;;;;5.45;3.60;;;9.90;99.90;;;;;;5015504;28;20053;-76
2021/12/23 06:01:38;;;;;;;7.38;3.83;;;9.90;99.90;;;;;;5013756;28;20045;-77
2021/12/23 06:04:05;;;;;;;6.67;2.90;;;9.90;99.90;;;;;;5015113;28;20071;-77
2021/12/23 06:06:31;;;;;;;5.82;3.38;;;9.90;99.90;;;;;;5015312;28;20096;-68
2021/12/23 06:08:57;;;;;;;8.85;4.25;;;9.90;99.90;;;;;;5015362;28;20327;-73
2021/12/23 06:11:23;;;;;;;6.45;4.35;;;9.90;99.90;;;;;;5014847;28;20164;-72
2021/12/23 06:13:49;;;;;;;6.33;4.37;;;9.90;99.90;;;;;;5015309;28;20075;-72
2021/12/23 06:16:15;;;;;;;6.18;4.22;;;9.80;99.90;;;;;;5014705;28;20030;-73
2021/12/23 06:18:41;;;;;;;6.10;4.10;;;9.80;99.90;;;;;;5014561;28;20104;-73
2021/12/23 06:21:07;;;;;;;8.00;3.97;;;9.80;99.90;;;;;;5014340;28;20026;-74
2021/12/23 06:23:33;;;;;;;6.70;3.90;;;9.80;99.90;;;;;;5014945;28;20257;-72
2021/12/23 06:25:59;;;;;;;8.83;4.50;;;9.80;99.90;;;;;;5013919;28;20037;-72
2021/12/23 06:28:26;;;;;;;6.15;3.88;;;9.80;99.90;;;;;;5014985;28;20089;-74
2021/12/23 06:30:53;;;;;;;7.80;4.20;;;9.80;99.90;;;;;;5014173;28;20022;-72
2021/12/23 06:33:19;;;;;;;7.97;4.28;;;9.90;99.90;;;;;;4996355;28;20434;-72
2021/12/23 06:35:45;;;;;;;4.10;3.00;;;9.90;99.90;;;;;;5014595;28;20067;-72
2021/12/23 06:38:12;;;;;;;8.53;4.13;;;9.90;99.90;;;;;;5014730;28;20030;-73
2021/12/23 06:40:41;;;;;;;6.68;4.22;;;9.90;99.90;;;;;;5013462;28;20482;-72
2021/12/23 06:43:07;;;;;;;6.03;3.67;;;9.90;99.90;;;;;;5014290;28;20021;-72
2021/12/23 06:45:33;;;;;;;10.27;3.42;;;10.20;99.90;;;;;;5014495;28;20030;-74
2021/12/23 06:48:00;;;;;;;6.63;4.27;;;10.50;99.90;;;;;;5014644;28;20026;-72
2021/12/23 06:50:26;;;;;;;5.72;3.33;;;10.90;99.90;;;;;;5014497;28;20044;-73
2021/12/23 06:52:53;;;;;;;6.10;3.20;;;11.00;99.90;;;;;;5014129;28;20050;-74
2021/12/23 06:55:20;;;;;;;7.50;3.20;;;11.20;99.90;;;;;;5014235;28;20040;-73
2021/12/23 06:57:47;;;;;;;5.95;3.53;;;11.50;99.90;;;;;;5014298;28;20041;-73
2021/12/23 07:00:17;;;;;;;6.50;2.85;;;11.70;99.90;;;;;;5014022;28;20022;-72
2021/12/23 07:02:44;;;;;;;8.85;3.08;;;12.00;99.90;;;;;;5014475;28;20029;-72
2021/12/23 07:05:11;;;;;;;6.85;3.28;;;12.30;99.90;;;;;;5012670;28;20026;-73
2021/12/23 07:07:52;;;;;;;6.10;3.72;;;12.40;99.90;;;;;;4996485;28;20037;-73
2021/12/23 07:10:20;;;;;;;6.65;3.45;;;12.00;99.90;;;;;;5014074;28;20037;-73
2021/12/23 07:12:47;;;;;;;7.00;3.25;;;11.60;99.90;;;;;;5013545;28;20037;-73
2021/12/23 07:15:13;;;;;;;7.30;4.28;;;11.30;99.90;;;;;;5013796;28;20097;-73
2021/12/23 07:17:40;;;;;;;6.30;3.83;;;11.10;99.90;;;;;;5013772;28;20026;-73
2021/12/23 07:20:07;;;;;;;4.47;2.67;;;11.00;99.90;;;;;;5012453;28;20136;-73
2021/12/23 07:22:33;;;;;;;8.65;3.75;;;10.90;99.90;;;;;;5013452;28;20117;-74
2021/12/23 07:24:59;;;;;;;7.90;3.73;;;11.20;99.90;;;;;;5013734;28;20117;-73
2021/12/23 07:27:25;;;;;;;5.80;3.30;;;11.80;99.90;;;;;;5014033;28;20096;-73
2021/12/23 07:29:53;;;;;;;5.13;2.95;;;12.30;99.90;;;;;;5013391;28;20030;-74
2021/12/23 07:32:19;;;;;;;;;;;12.90;99.90;;;;;;5013915;28;20034;-73
2021/12/23 07:34:45;;;;;;;4.90;3.30;;;13.10;99.90;;;;;;5013889;28;19966;-73
2021/12/23 07:37:11;;;;;;;8.18;3.70;;;13.40;99.90;;;;;;5011804;28;20553;-73
2021/12/23 07:39:38;;;;;;;8.40;3.63;;;13.80;99.90;;;;;;5013330;28;20029;-72
2021/12/23 07:42:14;;;;;;;5.28;3.53;;;13.70;99.90;;;;;;5013294;28;20109;-73
2021/12/23 07:44:41;;;;;;;5.43;3.80;;;13.50;99.90;;;;;;5013466;28;20067;-73
2021/12/23 07:47:07;;;;;;;7.05;3.53;;;13.60;99.90;;;;;;5013143;28;20761;-73
2021/12/23 07:49:34;;;;;;;6.93;3.83;;;13.40;99.90;;;;;;4996495;28;20033;-73
2021/12/23 07:52:00;;;;;;;6.75;3.55;;;13.10;99.90;;;;;;4995435;28;20150;-74
2021/12/23 07:54:26;;;;;;;5.30;3.80;;;12.70;99.90;;;;;;5012852;28;20033;-71
2021/12/23 07:56:52;;;;;;;7.07;4.07;;;12.60;99.90;;;;;;5012988;28;20029;-72
2021/12/23 07:59:18;;;;;;;6.27;3.83;;;12.50;99.90;;;;;;5013037;28;20021;-73
2021/12/23 08:01:53;;;;;;;5.10;3.30;;;12.50;99.90;;;;;;5012939;28;20481;-73
2021/12/23 08:04:19;;;;;;;5.95;4.32;;;12.50;99.90;;;;;;4995154;28;20026;-74
2021/12/23 08:06:51;;;;;;;8.25;3.95;;;12.40;99.90;;;;;;5012709;28;20094;-73
2021/12/23 08:09:19;;;;;;;11.52;4.80;;;12.30;99.90;;;;;;5012801;28;20026;-73
2021/12/23 08:11:45;;;;;;;8.45;4.28;;;12.40;99.90;;;;;;5013114;28;20033;-73
2021/12/23 08:14:11;;;;;;;7.57;4.18;;;12.40;99.90;;;;;;5012349;28;20026;-74
2021/12/23 08:16:37;;;;;;;9.70;4.32;;;12.60;99.90;;;;;;5012958;28;20029;-73
2021/12/23 08:19:04;;;;;;;7.03;4.18;;;12.60;99.90;;;;;;4995028;28;20121;-73
2021/12/23 08:21:30;;;;;;;9.50;4.90;;;12.80;99.90;;;;;;5012762;28;20352;-73
2021/12/23 08:23:56;;;;;;;8.50;3.90;;;12.80;99.90;;;;;;5013524;28;20034;-73
2021/12/23 08:26:28;;;;;;;6.50;4.00;;;13.00;99.90;;;;;;5013247;28;20057;-75
2021/12/23 08:28:55;;;;;;;7.32;3.53;;;13.20;99.90;;;;;;5013005;28;20264;-74
2021/12/23 08:31:22;;;;;;;6.72;3.13;;;13.30;99.90;;;;;;5013051;28;20034;-73
2021/12/23 08:33:49;;;;;;;9.25;3.33;;;13.40;99.90;;;;;;5012330;28;20398;-73
2021/12/23 08:36:15;;;;;;;;;;;13.50;99.90;;;;;;5012767;28;20105;-73
2021/12/23 08:38:43;;;;;;;6.95;2.70;;;13.50;99.90;;;;;;5012445;28;20000;-74
2021/12/23 08:41:09;;;;;;;5.95;3.30;;;13.30;99.90;;;;;;5012458;28;20025;-73
2021/12/23 08:43:35;;;;;;;8.13;3.10;;;13.30;99.90;;;;;;5011879;28;20037;-73
2021/12/23 08:46:03;;;;;;;6.05;3.25;;;13.10;99.90;;;;;;5011905;28;20022;-76
2021/12/23 08:48:30;;;;;;;4.32;2.10;;;13.20;99.90;;;;;;4994663;28;20078;-74
2021/12/23 08:50:56;;;;;;;4.82;2.60;;;13.20;99.90;;;;;;5012475;28;20033;-75
2021/12/23 08:53:22;;;;;;;6.38;2.70;;;13.20;99.90;;;;;;4993938;28;20050;-74
2021/12/23 08:55:48;;;;;;;5.00;2.42;;;13.30;99.90;;;;;;5011699;28;20041;-73
2021/12/23 08:58:14;;;;;;;7.53;3.50;;;13.20;99.90;;;;;;5011932;28;20422;-73
2021/12/23 09:00:41;;;;;;;6.13;3.10;;;13.30;99.90;;;;;;5012416;28;20029;-79
2021/12/23 09:03:09;;;;;;;5.90;3.20;;;13.40;99.90;;;;;;5011798;28;20022;-73
2021/12/23 09:05:37;;;;;;;9.07;4.70;;;13.50;99.90;;;;;;5012308;28;20030;-75
2021/12/23 09:08:05;;;;;;;6.07;3.30;;;13.60;99.90;;;;;;4994092;28;20018;-74
2021/12/23 09:10:32;;;;;;;5.35;3.25;;;13.50;99.90;;;;;;5010688;28;20021;-73
2021/12/23 09:12:59;;;;;;;6.38;2.60;;;13.60;99.90;;;;;;4993229;28;20469;-74
2021/12/23 09:15:25;;;;;;;;;;;13.60;99.90;;;;;;5012704;28;20071;-74
2021/12/23 09:17:51;;;;;;;7.32;2.80;;;13.70;99.90;;;;;;5011415;28;19952;-72
2021/12/23 09:20:20;;;;;;;8.00;3.43;;;13.90;99.90;;;;;;5012014;28;20036;-71
2021/12/23 09:22:47;;;;;;;7.93;3.42;;;13.80;99.90;;;;;;4994095;28;20281;-72
2021/12/23 09:25:23;;;;;;;7.10;2.70;;;13.90;99.90;;;;;;4994696;28;20112;-72
2021/12/23 09:28:05;;;;;;;7.53;2.70;;;14.10;99.90;;;;;;5012848;28;20022;-73
2021/12/23 09:33:18;;;;;;;5.20;3.17;;;14.30;99.90;;;;;;5012692;28;20105;-73
2021/12/23 09:35:44;;;;;;;7.40;3.05;;;14.50;99.90;;;;;;5012138;28;20030;-74
2021/12/23 09:38:11;;;;;;;4.97;2.78;;;14.80;99.90;;;;;;5012175;28;20026;-74
2021/12/23 09:40:39;;;;;;;5.65;2.67;;;14.70;99.90;;;;;;5010268;28;20061;-74
2021/12/23 09:43:09;;;;;;;5.22;2.30;;;14.80;99.90;;;;;;4993306;28;20030;-71
2021/12/23 09:45:36;;;;;;;6.53;2.50;;;14.80;99.90;;;;;;5010908;28;20423;-75
2021/12/23 09:48:04;;;;;;;5.75;2.55;;;14.60;99.90;;;;;;5011445;28;20038;-74
2021/12/23 09:50:35;;;;;;;3.40;2.40;;;14.60;99.90;;;;;;4993559;28;20099;-74
2021/12/23 09:53:03;;;;;;;5.32;2.17;;;14.70;99.90;;;;;;5010906;28;20061;-74
2021/12/23 09:55:30;;;;;;;4.18;1.98;;;14.80;99.90;;;;;;5011689;28;20411;-75
2021/12/23 09:57:58;;;;;;;4.03;1.98;;;15.00;99.90;;;;;;5009874;28;20092;-73
2021/12/23 10:00:28;;;;;;;6.80;2.50;;;14.90;99.90;;;;;;5011700;28;20029;-74
2021/12/23 10:02:54;;;;;;;3.38;1.90;;;14.80;99.90;;;;;;5011443;28;20052;-74
2021/12/23 10:05:24;;;;;;;3.60;1.95;;;14.80;99.90;;;;;;5011367;28;20026;-75
2021/12/23 10:07:54;;;;;;;6.13;2.38;;;14.60;99.90;;;;;;5013369;28;20113;-75
2021/12/23 10:30:18;;;;;;;3.80;2.08;;;15.00;99.60;;;;;;4954081;29;20031;-72
2021/12/23 10:38:23;;;;;;;5.70;2.40;;;15.50;99.70;;;;;;4954336;29;20049;-74
2021/12/23 10:40:59;;;;;;;5.35;2.47;;;15.70;99.20;;;;;;4954228;29;20042;-72
2021/12/23 10:43:36;;;;;;;4.25;1.77;;;15.80;98.80;;;;;;4964607;28;20041;-74
2021/12/23 10:46:26;;;;;;;4.32;2.33;;;16.10;97.90;;;;;;5014475;28;20037;-76
2021/12/23 10:49:30;;;;;;;4.72;2.35;;;15.90;97.50;;;;;;5014000;28;20037;-75
2021/12/23 10:51:56;;;;;;;4.20;2.22;;;16.10;97.90;;;;;;5013318;28;20042;-75
2021/12/23 10:58:00;;;;;;;4.47;2.20;;;16.50;98.20;;;;;;5014406;28;20536;-74
2021/12/23 11:00:13;;;;;;;3.60;2.33;;;16.00;98.10;;;;;;5014577;28;20088;-76
2021/12/23 11:02:41;;;;;;;3.70;2.15;;;15.60;98.60;;;;;;4996304;28;20068;-76
2021/12/23 11:07:51;;;;;;;5.32;2.05;;;15.70;98.50;;;;;;5014052;28;20600;-75
2021/12/23 11:10:51;;;;;;;3.83;2.03;;;15.50;98.80;;;;;;5012300;28;20042;-75
2021/12/23 11:38:37;;;;;;;4.90;2.15;;;14.70;98.70;;;;;;5013465;28;20034;-75
2021/12/23 11:41:33;;;;;;;6.10;1.98;;;14.60;98.40;;;;;;5013616;28;20019;-76
2021/12/23 11:43:58;;;;;;;3.20;1.80;;;14.50;97.30;;;;;;5012411;28;20029;-74
2021/12/23 11:46:47;;;;;;;4.18;1.88;;;14.50;97.50;;;;;;5012605;28;20029;-74
2021/12/23 11:49:15;;;;;;;4.85;1.92;;;14.60;96.90;;;;;;5013345;28;20033;-72
2021/12/23 11:54:22;;;;;;;4.18;1.90;;;14.60;97.20;;;;;;4993737;28;20120;-73
2021/12/23 11:57:01;;;;;;;8.45;2.40;;;14.70;96.70;;;;;;4976880;28;20032;-73
2021/12/23 11:59:30;;;;;;;3.90;1.70;;;14.70;96.90;;;;;;4977166;28;20034;-73
2021/12/23 12:01:57;;;;;;;4.22;1.70;;;14.80;96.80;;;;;;4993230;28;20026;-74
2021/12/23 12:04:27;;;;;;;3.50;1.65;;;14.90;97.10;;;;;;4993127;28;20038;-74
2021/12/23 12:07:18;;;;;;;4.05;1.70;;;15.00;96.80;;;;;;4993031;28;20383;-76
2021/12/23 12:10:05;;;;;;;7.13;1.92;;;15.00;96.40;;;;;;4993649;28;20032;-73
2021/12/23 12:12:33;;;;;;;5.15;1.98;;;15.20;96.40;;;;;;4993519;28;20030;-74
2021/12/23 12:15:01;;;;;;;2.85;1.50;;;15.40;96.30;;;;;;4975822;28;20080;-74
2021/12/23 12:17:33;;;;;;;3.35;1.60;;;15.60;95.80;;;;;;4993397;28;20030;-74
2021/12/23 12:20:04;;;;;;;7.63;2.10;;;15.70;96.10;;;;;;4993447;28;20026;-76
2021/12/23 12:22:57;;;;;;;2.78;1.70;;;15.80;98.70;;;;;;4993224;28;20026;-77
2021/12/23 12:25:25;;;;;;;6.55;2.13;;;15.90;98.40;;;;;;4993403;28;20030;-76
2021/12/23 12:27:58;;;;;;;8.18;3.40;;;15.90;99.00;;;;;;4991849;28;20371;-76
2021/12/23 12:30:45;;;;;;;7.03;3.60;;;15.90;99.10;;;;;;4991886;28;20423;-75
2021/12/23 12:33:12;;;;;;;4.38;2.50;;;15.90;99.20;;;;;;4992979;28;20149;-74
2021/12/23 12:35:41;;;;;;;5.43;2.42;;;15.80;98.80;;;;;;4991185;28;20332;-75
2021/12/23 12:38:13;;;;;;;4.88;2.20;;;15.80;99.60;;;;;;4991502;28;20088;-75
2021/12/23 12:40:56;;;;;;;4.15;2.17;;;15.90;99.90;;;;;;4992509;28;20033;-76
2021/12/23 12:43:41;;;;;;;2.95;1.90;;;16.20;99.90;;;;;;4992749;28;20049;-75
2021/12/23 12:46:12;;;;;;;7.18;1.55;;;16.50;99.30;;;;;;4993130;28;20046;-75
2021/12/23 12:48:57;;;;;;;3.10;1.50;;;16.90;98.70;;;;;;4992821;28;20037;-74
2021/12/23 12:51:35;;;;;;;5.03;2.00;;;17.20;98.40;;;;;;4992399;28;20057;-75
2021/12/23 12:54:06;;;;;;;3.00;1.70;;;17.40;98.70;;;;;;5011234;28;20046;-74
2021/12/23 12:56:42;;;;;;;5.25;1.85;;;17.40;98.60;;;;;;5010668;28;20478;-75
2021/12/23 12:59:10;;;;;;;3.40;1.73;;;17.40;98.70;;;;;;5010668;28;20037;-74
2021/12/23 13:01:42;;;;;;;4.05;1.70;;;17.40;98.90;;;;;;5012238;28;20026;-75
2021/12/23 13:04:34;;;;;;;6.25;1.92;;;17.40;98.90;;;;;;5012527;28;20655;-75
2021/12/23 13:07:34;;;;;;;5.75;1.90;;;17.50;98.60;;;;;;5012324;28;20021;-75
2021/12/23 13:10:15;;;;;;;6.72;1.90;;;17.70;98.10;;;;;;5010612;28;20120;-74
2021/12/23 13:13:01;;;;;;;6.40;1.80;;;17.90;97.70;;;;;;4984098;28;20046;-73
2021/12/23 13:15:39;;;;;;;4.95;1.90;;;17.90;97.20;;;;;;5011888;28;20030;-73
2021/12/23 13:18:17;;;;;;;6.47;1.67;;;17.80;97.30;;;;;;5012667;28;20109;-75
2021/12/23 13:20:48;;;;;;;4.82;1.90;;;17.90;97.80;;;;;;5011986;28;20113;-74
2021/12/23 13:23:17;;;;;;;5.85;1.60;;;18.10;97.60;;;;;;5011052;28;20048;-74
2021/12/23 13:25:58;;;;;;;3.40;1.42;;;18.20;97.20;;;;;;5011850;28;20342;-76
2021/12/23 13:28:26;;;;;;;6.15;1.75;;;18.20;97.10;;;;;;5011735;28;20026;-75
2021/12/23 13:30:52;;;;;;;7.18;1.70;;;18.20;97.10;;;;;;5012182;28;20141;-75
2021/12/23 13:33:18;;;;;;;13.05;2.90;;;18.40;97.00;;;;;;5012330;28;20115;-74
2021/12/23 13:35:45;;;;;;;21.40;3.55;;;18.50;96.70;;;;;;5012089;28;20105;-76
2021/12/23 13:38:36;;;;;;;54.10;7.30;;;18.50;96.30;;;;;;5011936;28;20025;-73
2021/12/23 13:41:13;;;;;;;10.55;2.65;;;18.50;96.10;;;;;;5013513;28;20026;-73
2021/12/23 13:43:40;;;;;;;36.15;4.95;;;18.30;96.60;;;;;;5016067;28;20544;-74
2021/12/23 13:46:08;;;;;;;24.92;3.65;;;18.30;96.60;;;;;;4998366;28;20030;-73
2021/12/23 13:48:48;;;;;;;19.38;3.42;;;18.00;97.30;;;;;;5026620;28;20097;-74
2021/12/23 13:51:17;;;;;;;32.97;4.28;;;18.20;97.40;;;;;;5015452;28;20030;-74
2021/12/23 13:53:44;;;;;;;29.75;3.67;;;18.10;97.20;;;;;;5015184;28;20046;-74
2021/12/23 13:56:15;;;;;;;35.45;5.22;;;18.10;97.30;;;;;;5015422;28;20056;-74
2021/12/23 13:58:42;;;;;;;21.55;4.03;;;18.00;97.70;;;;;;5015132;28;20026;-74
2021/12/23 14:01:08;;;;;;;7.07;1.98;;;17.80;98.20;;;;;;5015199;28;20037;-74
2021/12/23 14:03:36;;;;;;;28.23;4.45;;;18.00;97.80;;;;;;5015311;28;20046;-74
2021/12/23 14:06:03;;;;;;;20.95;3.70;;;17.80;98.00;;;;;;5013553;28;20090;-74
2021/12/23 14:08:32;;;;;;;12.40;2.50;;;18.10;97.70;;;;;;5015606;28;20026;-74
2021/12/23 14:11:00;;;;;;;57.00;6.07;;;18.00;97.10;;;;;;5015546;28;20041;-74
2021/12/23 14:13:26;;;;;;;8.43;2.30;;;17.80;96.80;;;;;;4997750;28;20038;-74